ENGM/OSL METAR and TAF weather

Enter ICAO airport designator
Station Type Date Time Source
ENGM METAR 2020/07/06 23:50 UTC NOAA

ENGM 062350Z 35003KT 300V050 CAVOK 11/05 Q1000


Station Type Date Time Source
ENGM Decoded METAR 2020/07/06 23:50 UTC NOAA

Oslo / Gardermoen, Norway (ENGM) 60-12N 011-05E 204M
Jul 06, 2020 - 07:50 PM EDT / 2020.07.06 2350 UTC
Wind: from the N (350 degrees) at 3 MPH (3 KT) (direction variable):0
Visibility: greater than 7 mile(s):0
Temperature: 51 F (11 C)
Dew Point: 41 F (5 C)
Relative Humidity: 66%
Pressure (altimeter): 29.53 in. Hg (1000 hPa)
ob: ENGM 062350Z 35003KT 300V050 CAVOK 11/05 Q1000
cycle: 0

Station Type Date Time Source
ENGM TAF 2020/07/06 18:59 UTC NOAA

TAF ENGM 061700Z 0618/0718 33008KT 9999 FEW040 BKN080
TEMPO 0710/0718 SHRA BKN020 SCT025CB PROB40
TEMPO 0711/0717 4000 TSRA

Example: see airport list